sensor_id;sensor_type;location;lat;lon;timestamp;temperature;humidity
79248;DHT22;68675;46.146;-0.948;2023-03-24T00:00:19;20.80;80.50
79248;DHT22;68675;46.146;-0.948;2023-03-24T00:02:46;20.80;80.60
79248;DHT22;68675;46.146;-0.948;2023-03-24T00:05:18;20.80;80.50
79248;DHT22;68675;46.146;-0.948;2023-03-24T00:07:44;20.80;80.60
79248;DHT22;68675;46.146;-0.948;2023-03-24T00:10:16;20.80;80.70
79248;DHT22;68675;46.146;-0.948;2023-03-24T00:12:43;20.80;80.40
79248;DHT22;68675;46.146;-0.948;2023-03-24T00:15:27;20.70;80.70
79248;DHT22;68675;46.146;-0.948;2023-03-24T00:17:53;20.80;80.60
79248;DHT22;68675;46.146;-0.948;2023-03-24T00:20:21;20.70;80.80
79248;DHT22;68675;46.146;-0.948;2023-03-24T00:22:50;20.80;80.60
79248;DHT22;68675;46.146;-0.948;2023-03-24T00:25:22;20.80;80.60
79248;DHT22;68675;46.146;-0.948;2023-03-24T00:27:49;20.80;80.60
79248;DHT22;68675;46.146;-0.948;2023-03-24T00:30:17;20.70;80.80
79248;DHT22;68675;46.146;-0.948;2023-03-24T00:32:44;20.60;80.60
79248;DHT22;68675;46.146;-0.948;2023-03-24T00:35:12;20.60;80.70
79248;DHT22;68675;46.146;-0.948;2023-03-24T00:37:39;20.70;80.70
79248;DHT22;68675;46.146;-0.948;2023-03-24T00:40:10;20.70;80.80
79248;DHT22;68675;46.146;-0.948;2023-03-24T00:42:38;20.70;80.70
79248;DHT22;68675;46.146;-0.948;2023-03-24T00:45:06;20.70;80.60
79248;DHT22;68675;46.146;-0.948;2023-03-24T00:47:33;20.60;80.80
79248;DHT22;68675;46.146;-0.948;2023-03-24T00:50:12;20.70;80.80
79248;DHT22;68675;46.146;-0.948;2023-03-24T00:52:37;20.60;80.70
79248;DHT22;68675;46.146;-0.948;2023-03-24T00:55:10;20.60;80.70
79248;DHT22;68675;46.146;-0.948;2023-03-24T00:57:41;20.60;80.80
79248;DHT22;68675;46.146;-0.948;2023-03-24T01:00:15;20.60;80.70
79248;DHT22;68675;46.146;-0.948;2023-03-24T01:02:49;20.60;80.70
79248;DHT22;68675;46.146;-0.948;2023-03-24T01:05:19;20.60;81.00
79248;DHT22;68675;46.146;-0.948;2023-03-24T01:07:45;20.60;80.80
79248;DHT22;68675;46.146;-0.948;2023-03-24T01:10:17;20.60;80.80
79248;DHT22;68675;46.146;-0.948;2023-03-24T01:12:44;20.60;80.70
79248;DHT22;68675;46.146;-0.948;2023-03-24T01:15:16;20.60;81.00
79248;DHT22;68675;46.146;-0.948;2023-03-24T01:17:42;20.60;80.90
79248;DHT22;68675;46.146;-0.948;2023-03-24T01:20:09;20.50;81.00
79248;DHT22;68675;46.146;-0.948;2023-03-24T01:22:38;20.50;80.90
79248;DHT22;68675;46.146;-0.948;2023-03-24T01:25:06;20.60;80.90
79248;DHT22;68675;46.146;-0.948;2023-03-24T01:27:31;20.50;80.80
79248;DHT22;68675;46.146;-0.948;2023-03-24T01:29:59;20.60;81.00
79248;DHT22;68675;46.146;-0.948;2023-03-24T01:32:25;20.50;80.90
79248;DHT22;68675;46.146;-0.948;2023-03-24T01:34:50;20.50;81.00
79248;DHT22;68675;46.146;-0.948;2023-03-24T01:37:16;20.50;80.90
79248;DHT22;68675;46.146;-0.948;2023-03-24T01:39:42;20.50;81.00
79248;DHT22;68675;46.146;-0.948;2023-03-24T01:42:17;20.50;81.00
79248;DHT22;68675;46.146;-0.948;2023-03-24T01:44:48;20.50;81.00
79248;DHT22;68675;46.146;-0.948;2023-03-24T01:47:14;20.50;81.00
79248;DHT22;68675;46.146;-0.948;2023-03-24T01:49:44;20.40;80.90
79248;DHT22;68675;46.146;-0.948;2023-03-24T01:52:22;20.40;81.00
79248;DHT22;68675;46.146;-0.948;2023-03-24T01:54:56;20.50;81.00
79248;DHT22;68675;46.146;-0.948;2023-03-24T01:57:29;20.40;81.00
79248;DHT22;68675;46.146;-0.948;2023-03-24T01:59:59;20.40;81.10
79248;DHT22;68675;46.146;-0.948;2023-03-24T02:02:29;20.40;81.10
79248;DHT22;68675;46.146;-0.948;2023-03-24T02:05:02;20.40;81.00
79248;DHT22;68675;46.146;-0.948;2023-03-24T02:07:49;20.40;81.00
79248;DHT22;68675;46.146;-0.948;2023-03-24T02:10:18;20.40;81.00
79248;DHT22;68675;46.146;-0.948;2023-03-24T02:12:44;20.40;81.00
79248;DHT22;68675;46.146;-0.948;2023-03-24T02:15:12;20.50;81.00
79248;DHT22;68675;46.146;-0.948;2023-03-24T02:18:04;20.30;81.00
79248;DHT22;68675;46.146;-0.948;2023-03-24T02:34:41;20.40;81.20
79248;DHT22;68675;46.146;-0.948;2023-03-24T02:40:42;20.40;81.20
79248;DHT22;68675;46.146;-0.948;2023-03-24T02:43:31;20.30;81.10
79248;DHT22;68675;46.146;-0.948;2023-03-24T02:51:43;20.30;81.20
79248;DHT22;68675;46.146;-0.948;2023-03-24T02:54:21;20.30;81.10
79248;DHT22;68675;46.146;-0.948;2023-03-24T03:02:26;20.30;81.30
79248;DHT22;68675;46.146;-0.948;2023-03-24T03:04:56;20.30;81.20
79248;DHT22;68675;46.146;-0.948;2023-03-24T03:07:26;20.20;81.20
79248;DHT22;68675;46.146;-0.948;2023-03-24T03:10:06;20.20;81.10
79248;DHT22;68675;46.146;-0.948;2023-03-24T03:12:36;20.20;81.10
79248;DHT22;68675;46.146;-0.948;2023-03-24T03:15:14;20.30;81.10
79248;DHT22;68675;46.146;-0.948;2023-03-24T03:17:47;20.30;81.00
79248;DHT22;68675;46.146;-0.948;2023-03-24T03:20:19;20.30;81.10
79248;DHT22;68675;46.146;-0.948;2023-03-24T03:23:00;20.20;81.20
79248;DHT22;68675;46.146;-0.948;2023-03-24T03:25:32;20.30;81.30
79248;DHT22;68675;46.146;-0.948;2023-03-24T03:28:01;20.30;81.40
79248;DHT22;68675;46.146;-0.948;2023-03-24T03:30:34;20.30;81.10
79248;DHT22;68675;46.146;-0.948;2023-03-24T03:33:37;20.20;81.10
79248;DHT22;68675;46.146;-0.948;2023-03-24T03:39:37;20.20;81.20
79248;DHT22;68675;46.146;-0.948;2023-03-24T03:41:43;20.20;81.30
79248;DHT22;68675;46.146;-0.948;2023-03-24T03:44:10;20.20;81.20
79248;DHT22;68675;46.146;-0.948;2023-03-24T03:46:36;20.20;81.10
79248;DHT22;68675;46.146;-0.948;2023-03-24T03:49:02;20.20;81.20
79248;DHT22;68675;46.146;-0.948;2023-03-24T03:51:28;20.20;81.30
79248;DHT22;68675;46.146;-0.948;2023-03-24T03:54:00;20.20;81.20
79248;DHT22;68675;46.146;-0.948;2023-03-24T03:56:28;20.20;81.20
79248;DHT22;68675;46.146;-0.948;2023-03-24T03:58:54;20.20;81.20
79248;DHT22;68675;46.146;-0.948;2023-03-24T04:01:22;20.20;81.20
79248;DHT22;68675;46.146;-0.948;2023-03-24T04:04:30;20.20;81.30
79248;DHT22;68675;46.146;-0.948;2023-03-24T04:09:37;20.20;81.20
79248;DHT22;68675;46.146;-0.948;2023-03-24T04:12:26;20.20;81.40
79248;DHT22;68675;46.146;-0.948;2023-03-24T04:20:23;20.10;81.30
79248;DHT22;68675;46.146;-0.948;2023-03-24T04:23:12;20.20;81.20
79248;DHT22;68675;46.146;-0.948;2023-03-24T04:34:02;20.20;81.10
79248;DHT22;68675;46.146;-0.948;2023-03-24T04:39:17;20.20;81.10
79248;DHT22;68675;46.146;-0.948;2023-03-24T04:41:44;20.10;81.10
79248;DHT22;68675;46.146;-0.948;2023-03-24T04:44:12;20.20;80.90
79248;DHT22;68675;46.146;-0.948;2023-03-24T04:46:47;20.10;81.00
79248;DHT22;68675;46.146;-0.948;2023-03-24T04:49:14;20.20;81.00
79248;DHT22;68675;46.146;-0.948;2023-03-24T04:51:41;20.10;80.90
79248;DHT22;68675;46.146;-0.948;2023-03-24T04:54:07;20.10;81.00
79248;DHT22;68675;46.146;-0.948;2023-03-24T04:59:04;20.10;81.00
79248;DHT22;68675;46.146;-0.948;2023-03-24T05:01:31;20.10;80.90
79248;DHT22;68675;46.146;-0.948;2023-03-24T05:04:01;20.10;80.90
79248;DHT22;68675;46.146;-0.948;2023-03-24T05:06:28;20.10;80.90
79248;DHT22;68675;46.146;-0.948;2023-03-24T05:08:55;20.20;81.10
79248;DHT22;68675;46.146;-0.948;2023-03-24T05:11:24;20.10;81.00
79248;DHT22;68675;46.146;-0.948;2023-03-24T05:13:50;20.20;81.00
79248;DHT22;68675;46.146;-0.948;2023-03-24T05:16:16;20.10;81.00
79248;DHT22;68675;46.146;-0.948;2023-03-24T05:18:42;20.10;81.00
79248;DHT22;68675;46.146;-0.948;2023-03-24T05:21:08;20.20;81.00
79248;DHT22;68675;46.146;-0.948;2023-03-24T05:23:34;20.00;80.90
79248;DHT22;68675;46.146;-0.948;2023-03-24T05:25:59;20.10;81.10
79248;DHT22;68675;46.146;-0.948;2023-03-24T05:28:25;20.10;80.80
79248;DHT22;68675;46.146;-0.948;2023-03-24T05:30:51;20.20;81.10
79248;DHT22;68675;46.146;-0.948;2023-03-24T05:33:17;20.10;81.00
79248;DHT22;68675;46.146;-0.948;2023-03-24T05:35:42;20.10;81.00
79248;DHT22;68675;46.146;-0.948;2023-03-24T05:38:08;20.20;80.90
79248;DHT22;68675;46.146;-0.948;2023-03-24T05:40:35;20.20;80.90
79248;DHT22;68675;46.146;-0.948;2023-03-24T05:43:01;20.10;81.10
79248;DHT22;68675;46.146;-0.948;2023-03-24T05:45:27;20.20;81.00
79248;DHT22;68675;46.146;-0.948;2023-03-24T05:47:53;20.10;81.00
79248;DHT22;68675;46.146;-0.948;2023-03-24T05:50:20;20.10;81.00
79248;DHT22;68675;46.146;-0.948;2023-03-24T05:52:45;20.10;81.00
79248;DHT22;68675;46.146;-0.948;2023-03-24T05:55:11;20.10;81.00
79248;DHT22;68675;46.146;-0.948;2023-03-24T05:57:37;20.10;81.10
79248;DHT22;68675;46.146;-0.948;2023-03-24T06:00:05;20.20;81.00
79248;DHT22;68675;46.146;-0.948;2023-03-24T06:02:33;20.20;81.00
79248;DHT22;68675;46.146;-0.948;2023-03-24T06:04:59;20.10;81.10
79248;DHT22;68675;46.146;-0.948;2023-03-24T06:07:26;20.20;81.10
79248;DHT22;68675;46.146;-0.948;2023-03-24T06:09:58;20.20;81.20
79248;DHT22;68675;46.146;-0.948;2023-03-24T06:12:27;20.20;81.20
79248;DHT22;68675;46.146;-0.948;2023-03-24T06:14:54;20.10;81.10
79248;DHT22;68675;46.146;-0.948;2023-03-24T06:17:20;20.20;81.10
79248;DHT22;68675;46.146;-0.948;2023-03-24T06:19:46;20.20;81.20
79248;DHT22;68675;46.146;-0.948;2023-03-24T06:22:19;20.10;81.00
79248;DHT22;68675;46.146;-0.948;2023-03-24T06:24:45;20.20;81.10
79248;DHT22;68675;46.146;-0.948;2023-03-24T06:27:14;20.20;81.10
79248;DHT22;68675;46.146;-0.948;2023-03-24T06:29:40;20.20;81.10
79248;DHT22;68675;46.146;-0.948;2023-03-24T06:32:09;20.20;81.10
79248;DHT22;68675;46.146;-0.948;2023-03-24T06:34:35;20.10;81.40
79248;DHT22;68675;46.146;-0.948;2023-03-24T06:37:03;20.20;81.00
79248;DHT22;68675;46.146;-0.948;2023-03-24T06:39:29;20.10;81.20
79248;DHT22;68675;46.146;-0.948;2023-03-24T06:41:54;20.00;81.10
79248;DHT22;68675;46.146;-0.948;2023-03-24T06:44:20;20.20;81.10
79248;DHT22;68675;46.146;-0.948;2023-03-24T06:46:46;20.00;81.30
79248;DHT22;68675;46.146;-0.948;2023-03-24T06:49:11;20.20;81.20
79248;DHT22;68675;46.146;-0.948;2023-03-24T06:51:37;20.20;81.10
79248;DHT22;68675;46.146;-0.948;2023-03-24T06:54:03;20.20;81.30
79248;DHT22;68675;46.146;-0.948;2023-03-24T06:56:28;20.10;81.20
79248;DHT22;68675;46.146;-0.948;2023-03-24T06:58:55;20.20;81.40
79248;DHT22;68675;46.146;-0.948;2023-03-24T07:01:21;20.10;81.30
79248;DHT22;68675;46.146;-0.948;2023-03-24T07:03:46;20.20;81.20
79248;DHT22;68675;46.146;-0.948;2023-03-24T07:06:13;20.20;81.10
79248;DHT22;68675;46.146;-0.948;2023-03-24T07:08:38;20.10;81.30
79248;DHT22;68675;46.146;-0.948;2023-03-24T07:11:05;20.20;81.30
79248;DHT22;68675;46.146;-0.948;2023-03-24T07:13:33;20.10;81.30
79248;DHT22;68675;46.146;-0.948;2023-03-24T07:15:58;20.20;81.30
79248;DHT22;68675;46.146;-0.948;2023-03-24T07:18:24;20.20;81.30
79248;DHT22;68675;46.146;-0.948;2023-03-24T07:20:50;20.30;81.10
79248;DHT22;68675;46.146;-0.948;2023-03-24T07:23:16;20.20;81.20
79248;DHT22;68675;46.146;-0.948;2023-03-24T07:25:42;20.20;81.30
79248;DHT22;68675;46.146;-0.948;2023-03-24T07:28:09;20.20;81.20
79248;DHT22;68675;46.146;-0.948;2023-03-24T07:30:35;20.20;81.30
79248;DHT22;68675;46.146;-0.948;2023-03-24T07:33:03;20.20;81.30
79248;DHT22;68675;46.146;-0.948;2023-03-24T07:35:29;20.20;81.20
79248;DHT22;68675;46.146;-0.948;2023-03-24T07:37:58;20.20;81.20
79248;DHT22;68675;46.146;-0.948;2023-03-24T07:40:24;20.20;81.20
79248;DHT22;68675;46.146;-0.948;2023-03-24T07:42:50;20.20;81.30
79248;DHT22;68675;46.146;-0.948;2023-03-24T07:45:16;20.20;81.20
79248;DHT22;68675;46.146;-0.948;2023-03-24T07:47:45;20.20;81.20
79248;DHT22;68675;46.146;-0.948;2023-03-24T07:50:12;20.20;81.30
79248;DHT22;68675;46.146;-0.948;2023-03-24T07:52:39;20.20;81.30
79248;DHT22;68675;46.146;-0.948;2023-03-24T07:55:07;20.20;81.20
79248;DHT22;68675;46.146;-0.948;2023-03-24T10:36:25;19.90;78.50
79248;DHT22;68675;46.146;-0.948;2023-03-24T10:38:52;19.90;79.00
79248;DHT22;68675;46.146;-0.948;2023-03-24T10:41:26;19.90;78.60
79248;DHT22;68675;46.146;-0.948;2023-03-24T10:43:55;20.00;78.30
79248;DHT22;68675;46.146;-0.948;2023-03-24T10:46:24;20.00;78.80
79248;DHT22;68675;46.146;-0.948;2023-03-24T10:51:47;20.10;78.40
79248;DHT22;68675;46.146;-0.948;2023-03-24T10:56:44;20.20;78.00
79248;DHT22;68675;46.146;-0.948;2023-03-24T10:59:38;20.20;78.10
79248;DHT22;68675;46.146;-0.948;2023-03-24T11:02:26;20.20;78.10
79248;DHT22;68675;46.146;-0.948;2023-03-24T11:05:01;20.10;78.10
79248;DHT22;68675;46.146;-0.948;2023-03-24T11:07:39;20.20;78.30
79248;DHT22;68675;46.146;-0.948;2023-03-24T11:12:40;20.20;78.30
79248;DHT22;68675;46.146;-0.948;2023-03-24T11:15:21;20.30;77.90
79248;DHT22;68675;46.146;-0.948;2023-03-24T11:17:53;20.30;78.00
79248;DHT22;68675;46.146;-0.948;2023-03-24T11:20:36;20.20;78.00
79248;DHT22;68675;46.146;-0.948;2023-03-24T11:25:44;20.30;77.90
79248;DHT22;68675;46.146;-0.948;2023-03-24T11:28:16;20.30;77.50
79248;DHT22;68675;46.146;-0.948;2023-03-24T11:30:51;20.30;77.90
79248;DHT22;68675;46.146;-0.948;2023-03-24T11:33:28;20.40;78.60
79248;DHT22;68675;46.146;-0.948;2023-03-24T11:35:58;20.50;78.70
79248;DHT22;68675;46.146;-0.948;2023-03-24T11:38:29;20.40;78.90
79248;DHT22;68675;46.146;-0.948;2023-03-24T11:40:56;20.40;78.80
79248;DHT22;68675;46.146;-0.948;2023-03-24T11:43:24;20.50;78.90
79248;DHT22;68675;46.146;-0.948;2023-03-24T11:46:01;20.50;78.90
79248;DHT22;68675;46.146;-0.948;2023-03-24T11:48:53;20.50;79.00
79248;DHT22;68675;46.146;-0.948;2023-03-24T11:51:35;20.50;79.00
79248;DHT22;68675;46.146;-0.948;2023-03-24T11:54:05;20.40;78.90
79248;DHT22;68675;46.146;-0.948;2023-03-24T11:56:51;20.50;79.00
79248;DHT22;68675;46.146;-0.948;2023-03-24T11:59:27;20.40;78.70
79248;DHT22;68675;46.146;-0.948;2023-03-24T12:02:12;20.40;79.00
79248;DHT22;68675;46.146;-0.948;2023-03-24T12:56:23;20.90;77.80
79248;DHT22;68675;46.146;-0.948;2023-03-24T12:58:59;20.90;77.90
79248;DHT22;68675;46.146;-0.948;2023-03-24T13:04:14;21.00;77.80
79248;DHT22;68675;46.146;-0.948;2023-03-24T13:12:02;21.00;77.90
79248;DHT22;68675;46.146;-0.948;2023-03-24T13:14:30;20.90;77.60
79248;DHT22;68675;46.146;-0.948;2023-03-24T13:17:03;20.90;76.80
79248;DHT22;68675;46.146;-0.948;2023-03-24T13:19:29;20.90;77.30
79248;DHT22;68675;46.146;-0.948;2023-03-24T13:21:56;20.90;77.30
79248;DHT22;68675;46.146;-0.948;2023-03-24T13:24:22;20.90;77.10
79248;DHT22;68675;46.146;-0.948;2023-03-24T13:34:24;21.00;77.30
79248;DHT22;68675;46.146;-0.948;2023-03-24T13:37:12;21.00;77.40
79248;DHT22;68675;46.146;-0.948;2023-03-24T13:39:39;20.90;77.50
79248;DHT22;68675;46.146;-0.948;2023-03-24T13:42:19;21.00;77.40
79248;DHT22;68675;46.146;-0.948;2023-03-24T13:44:51;21.00;77.50
79248;DHT22;68675;46.146;-0.948;2023-03-24T13:47:17;21.10;77.40
79248;DHT22;68675;46.146;-0.948;2023-03-24T13:49:59;20.90;77.50
79248;DHT22;68675;46.146;-0.948;2023-03-24T13:52:33;21.00;77.40
79248;DHT22;68675;46.146;-0.948;2023-03-24T13:55:00;21.00;77.50
79248;DHT22;68675;46.146;-0.948;2023-03-24T13:57:27;21.10;77.50
79248;DHT22;68675;46.146;-0.948;2023-03-24T14:00:00;21.10;77.60
79248;DHT22;68675;46.146;-0.948;2023-03-24T14:12:53;21.10;77.30
79248;DHT22;68675;46.146;-0.948;2023-03-24T14:15:29;21.10;77.40
79248;DHT22;68675;46.146;-0.948;2023-03-24T14:17:56;21.10;77.40
79248;DHT22;68675;46.146;-0.948;2023-03-24T14:20:38;21.10;77.40
79248;DHT22;68675;46.146;-0.948;2023-03-24T14:23:13;21.10;77.50
79248;DHT22;68675;46.146;-0.948;2023-03-24T14:25:44;21.00;77.50
79248;DHT22;68675;46.146;-0.948;2023-03-24T14:28:21;21.00;77.40
79248;DHT22;68675;46.146;-0.948;2023-03-24T14:31:17;20.90;77.10
79248;DHT22;68675;46.146;-0.948;2023-03-24T14:34:25;21.00;77.00
79248;DHT22;68675;46.146;-0.948;2023-03-24T14:41:33;21.10;77.00
79248;DHT22;68675;46.146;-0.948;2023-03-24T14:44:03;21.10;77.20
79248;DHT22;68675;46.146;-0.948;2023-03-24T14:49:03;21.10;77.30
79248;DHT22;68675;46.146;-0.948;2023-03-24T14:54:01;21.30;77.10
79248;DHT22;68675;46.146;-0.948;2023-03-24T14:56:31;21.20;77.00
79248;DHT22;68675;46.146;-0.948;2023-03-24T14:58:57;21.20;77.20
79248;DHT22;68675;46.146;-0.948;2023-03-24T15:01:26;21.10;77.00
79248;DHT22;68675;46.146;-0.948;2023-03-24T15:04:08;21.20;77.00
79248;DHT22;68675;46.146;-0.948;2023-03-24T15:06:42;21.10;77.00
79248;DHT22;68675;46.146;-0.948;2023-03-24T15:09:09;21.10;76.90
79248;DHT22;68675;46.146;-0.948;2023-03-24T15:11:36;21.20;77.10
79248;DHT22;68675;46.146;-0.948;2023-03-24T15:14:03;21.10;77.20
79248;DHT22;68675;46.146;-0.948;2023-03-24T15:16:30;21.10;77.30
79248;DHT22;68675;46.146;-0.948;2023-03-24T15:21:26;21.10;77.20
79248;DHT22;68675;46.146;-0.948;2023-03-24T15:23:52;21.00;77.10
79248;DHT22;68675;46.146;-0.948;2023-03-24T15:26:18;21.10;77.10
79248;DHT22;68675;46.146;-0.948;2023-03-24T15:28:46;21.20;77.00
79248;DHT22;68675;46.146;-0.948;2023-03-24T15:31:17;21.10;77.00
79248;DHT22;68675;46.146;-0.948;2023-03-24T15:33:45;21.10;76.90
79248;DHT22;68675;46.146;-0.948;2023-03-24T15:36:15;21.10;77.00
79248;DHT22;68675;46.146;-0.948;2023-03-24T15:38:47;21.20;77.10
79248;DHT22;68675;46.146;-0.948;2023-03-24T15:41:14;21.10;77.30
79248;DHT22;68675;46.146;-0.948;2023-03-24T15:43:44;21.20;77.00
79248;DHT22;68675;46.146;-0.948;2023-03-24T15:46:17;21.10;77.00
79248;DHT22;68675;46.146;-0.948;2023-03-24T15:48:44;21.10;77.10
79248;DHT22;68675;46.146;-0.948;2023-03-24T15:51:10;21.10;77.20
79248;DHT22;68675;46.146;-0.948;2023-03-24T15:53:41;21.20;77.20
79248;DHT22;68675;46.146;-0.948;2023-03-24T15:56:16;21.20;77.20
79248;DHT22;68675;46.146;-0.948;2023-03-24T16:01:14;21.20;77.00
79248;DHT22;68675;46.146;-0.948;2023-03-24T16:03:41;21.20;77.40
79248;DHT22;68675;46.146;-0.948;2023-03-24T16:06:15;21.20;77.10
79248;DHT22;68675;46.146;-0.948;2023-03-24T16:08:47;21.20;77.20
79248;DHT22;68675;46.146;-0.948;2023-03-24T16:11:13;21.30;77.20
79248;DHT22;68675;46.146;-0.948;2023-03-24T16:13:43;21.20;77.20
79248;DHT22;68675;46.146;-0.948;2023-03-24T16:18:38;21.20;77.40
79248;DHT22;68675;46.146;-0.948;2023-03-24T16:21:18;21.20;76.70
79248;DHT22;68675;46.146;-0.948;2023-03-24T16:23:44;21.00;76.60
79248;DHT22;68675;46.146;-0.948;2023-03-24T16:26:14;21.00;77.10
79248;DHT22;68675;46.146;-0.948;2023-03-24T16:28:39;21.00;77.50
79248;DHT22;68675;46.146;-0.948;2023-03-24T16:31:05;21.10;77.20
79248;DHT22;68675;46.146;-0.948;2023-03-24T16:33:31;21.20;77.30
79248;DHT22;68675;46.146;-0.948;2023-03-24T16:35:58;21.10;77.20
79248;DHT22;68675;46.146;-0.948;2023-03-24T16:38:25;21.20;77.20
79248;DHT22;68675;46.146;-0.948;2023-03-24T16:40:51;21.20;77.40
79248;DHT22;68675;46.146;-0.948;2023-03-24T16:43:17;21.20;77.30
79248;DHT22;68675;46.146;-0.948;2023-03-24T16:45:47;21.10;77.40
79248;DHT22;68675;46.146;-0.948;2023-03-24T16:48:13;21.10;77.40
79248;DHT22;68675;46.146;-0.948;2023-03-24T16:50:50;21.60;79.30
79248;DHT22;68675;46.146;-0.948;2023-03-24T16:53:17;22.70;75.40
79248;DHT22;68675;46.146;-0.948;2023-03-24T16:55:43;23.00;73.20
79248;DHT22;68675;46.146;-0.948;2023-03-24T16:58:11;23.50;73.50
79248;DHT22;68675;46.146;-0.948;2023-03-24T17:00:37;23.90;72.50
79248;DHT22;68675;46.146;-0.948;2023-03-24T17:03:04;23.90;72.80
79248;DHT22;68675;46.146;-0.948;2023-03-24T17:05:39;24.00;72.20
79248;DHT22;68675;46.146;-0.948;2023-03-24T17:08:06;24.20;71.70
79248;DHT22;68675;46.146;-0.948;2023-03-24T17:10:31;23.50;71.10
79248;DHT22;68675;46.146;-0.948;2023-03-24T17:12:57;22.70;71.60
79248;DHT22;68675;46.146;-0.948;2023-03-24T17:15:24;23.10;71.20
79248;DHT22;68675;46.146;-0.948;2023-03-24T17:17:50;23.60;69.20
79248;DHT22;68675;46.146;-0.948;2023-03-24T17:20:16;23.40;68.40
79248;DHT22;68675;46.146;-0.948;2023-03-24T17:22:44;22.90;69.70
79248;DHT22;68675;46.146;-0.948;2023-03-24T17:25:12;22.10;70.50
79248;DHT22;68675;46.146;-0.948;2023-03-24T17:27:39;21.60;71.70
79248;DHT22;68675;46.146;-0.948;2023-03-24T17:30:09;21.10;71.80
79248;DHT22;68675;46.146;-0.948;2023-03-24T17:32:35;21.20;72.70
79248;DHT22;68675;46.146;-0.948;2023-03-24T17:35:02;21.30;73.40
79248;DHT22;68675;46.146;-0.948;2023-03-24T17:37:29;21.40;73.30
79248;DHT22;68675;46.146;-0.948;2023-03-24T17:39:55;21.50;73.80
79248;DHT22;68675;46.146;-0.948;2023-03-24T17:42:22;21.60;74.10
79248;DHT22;68675;46.146;-0.948;2023-03-24T17:44:49;21.50;74.30
79248;DHT22;68675;46.146;-0.948;2023-03-24T17:47:15;21.50;74.40
79248;DHT22;68675;46.146;-0.948;2023-03-24T17:49:40;21.50;74.50
79248;DHT22;68675;46.146;-0.948;2023-03-24T17:52:07;21.60;74.40
79248;DHT22;68675;46.146;-0.948;2023-03-24T17:54:32;21.60;74.50
79248;DHT22;68675;46.146;-0.948;2023-03-24T17:56:58;21.60;74.70
79248;DHT22;68675;46.146;-0.948;2023-03-24T17:59:23;21.60;74.60
79248;DHT22;68675;46.146;-0.948;2023-03-24T18:01:49;21.80;74.50
79248;DHT22;68675;46.146;-0.948;2023-03-24T18:04:15;21.80;74.00
79248;DHT22;68675;46.146;-0.948;2023-03-24T18:06:42;21.70;74.40
79248;DHT22;68675;46.146;-0.948;2023-03-24T18:09:08;21.90;74.20
79248;DHT22;68675;46.146;-0.948;2023-03-24T18:11:34;21.80;74.40
79248;DHT22;68675;46.146;-0.948;2023-03-24T18:14:00;21.80;74.60
79248;DHT22;68675;46.146;-0.948;2023-03-24T18:16:27;21.80;74.30
79248;DHT22;68675;46.146;-0.948;2023-03-24T18:18:55;21.80;74.40
79248;DHT22;68675;46.146;-0.948;2023-03-24T18:21:21;21.80;74.60
79248;DHT22;68675;46.146;-0.948;2023-03-24T18:23:48;21.70;74.70
79248;DHT22;68675;46.146;-0.948;2023-03-24T18:26:15;21.70;74.70
79248;DHT22;68675;46.146;-0.948;2023-03-24T18:28:42;21.70;75.10
79248;DHT22;68675;46.146;-0.948;2023-03-24T18:31:20;21.80;75.10
79248;DHT22;68675;46.146;-0.948;2023-03-24T18:33:46;21.80;74.70
79248;DHT22;68675;46.146;-0.948;2023-03-24T18:36:14;21.80;74.90
79248;DHT22;68675;46.146;-0.948;2023-03-24T18:38:41;21.50;73.40
79248;DHT22;68675;46.146;-0.948;2023-03-24T18:41:08;21.30;74.30
79248;DHT22;68675;46.146;-0.948;2023-03-24T18:43:34;21.40;75.20
79248;DHT22;68675;46.146;-0.948;2023-03-24T18:46:05;21.50;74.90
79248;DHT22;68675;46.146;-0.948;2023-03-24T18:48:34;21.60;74.80
79248;DHT22;68675;46.146;-0.948;2023-03-24T18:51:00;21.60;75.40
79248;DHT22;68675;46.146;-0.948;2023-03-24T18:53:25;21.60;74.70
79248;DHT22;68675;46.146;-0.948;2023-03-24T18:55:51;21.70;75.50
79248;DHT22;68675;46.146;-0.948;2023-03-24T18:58:17;21.70;74.90
79248;DHT22;68675;46.146;-0.948;2023-03-24T19:00:54;21.70;75.20
79248;DHT22;68675;46.146;-0.948;2023-03-24T19:03:22;21.70;75.00
79248;DHT22;68675;46.146;-0.948;2023-03-24T19:05:49;21.80;74.60
79248;DHT22;68675;46.146;-0.948;2023-03-24T19:08:18;21.40;74.80
79248;DHT22;68675;46.146;-0.948;2023-03-24T19:10:44;21.30;75.20
79248;DHT22;68675;46.146;-0.948;2023-03-24T19:13:11;21.50;75.40
79248;DHT22;68675;46.146;-0.948;2023-03-24T19:15:37;21.50;75.30
79248;DHT22;68675;46.146;-0.948;2023-03-24T19:18:03;21.60;75.30
79248;DHT22;68675;46.146;-0.948;2023-03-24T19:20:29;21.60;75.30
79248;DHT22;68675;46.146;-0.948;2023-03-24T19:22:54;21.60;75.60
79248;DHT22;68675;46.146;-0.948;2023-03-24T19:25:21;21.80;75.50
79248;DHT22;68675;46.146;-0.948;2023-03-24T19:27:47;21.80;75.50
79248;DHT22;68675;46.146;-0.948;2023-03-24T19:30:13;21.80;75.30
79248;DHT22;68675;46.146;-0.948;2023-03-24T19:32:40;21.80;75.40
79248;DHT22;68675;46.146;-0.948;2023-03-24T19:35:06;21.90;75.40
79248;DHT22;68675;46.146;-0.948;2023-03-24T19:37:32;21.90;75.40
79248;DHT22;68675;46.146;-0.948;2023-03-24T19:39:58;22.00;75.30
79248;DHT22;68675;46.146;-0.948;2023-03-24T19:42:25;22.00;75.30
79248;DHT22;68675;46.146;-0.948;2023-03-24T19:44:52;22.10;75.40
79248;DHT22;68675;46.146;-0.948;2023-03-24T19:47:19;22.10;75.40
79248;DHT22;68675;46.146;-0.948;2023-03-24T19:49:45;22.10;75.30
79248;DHT22;68675;46.146;-0.948;2023-03-24T19:52:11;22.10;75.00
79248;DHT22;68675;46.146;-0.948;2023-03-24T19:54:37;22.20;75.20
79248;DHT22;68675;46.146;-0.948;2023-03-24T19:57:03;22.20;75.10
79248;DHT22;68675;46.146;-0.948;2023-03-24T19:59:29;22.10;75.10
79248;DHT22;68675;46.146;-0.948;2023-03-24T20:01:55;22.00;75.20
79248;DHT22;68675;46.146;-0.948;2023-03-24T20:04:21;22.10;75.40
79248;DHT22;68675;46.146;-0.948;2023-03-24T20:06:48;22.20;75.40
79248;DHT22;68675;46.146;-0.948;2023-03-24T20:09:14;22.20;75.30
79248;DHT22;68675;46.146;-0.948;2023-03-24T20:11:40;22.20;75.40
79248;DHT22;68675;46.146;-0.948;2023-03-24T20:14:06;22.40;74.90
79248;DHT22;68675;46.146;-0.948;2023-03-24T20:16:32;22.30;74.90
79248;DHT22;68675;46.146;-0.948;2023-03-24T20:18:57;22.40;75.00
79248;DHT22;68675;46.146;-0.948;2023-03-24T20:21:23;22.40;75.20
79248;DHT22;68675;46.146;-0.948;2023-03-24T20:23:50;22.50;75.10
79248;DHT22;68675;46.146;-0.948;2023-03-24T20:26:16;22.40;74.90
79248;DHT22;68675;46.146;-0.948;2023-03-24T20:28:42;22.40;75.20
79248;DHT22;68675;46.146;-0.948;2023-03-24T20:31:09;22.50;75.20
79248;DHT22;68675;46.146;-0.948;2023-03-24T20:33:35;22.50;75.10
79248;DHT22;68675;46.146;-0.948;2023-03-24T20:36:01;22.40;75.40
79248;DHT22;68675;46.146;-0.948;2023-03-24T20:38:28;22.40;75.20
79248;DHT22;68675;46.146;-0.948;2023-03-24T20:41:02;22.50;75.20
79248;DHT22;68675;46.146;-0.948;2023-03-24T20:43:34;22.50;75.10
79248;DHT22;68675;46.146;-0.948;2023-03-24T20:46:04;22.50;74.90